sensor_id;sensor_type;location;lat;lon;timestamp;temperature;humidity
52869;DHT22;39100;53.480;6.158;2022-07-05T00:01:05;16.00;99.90
52869;DHT22;39100;53.480;6.158;2022-07-05T00:03:31;16.00;99.90
52869;DHT22;39100;53.480;6.158;2022-07-05T00:05:57;15.90;99.90
52869;DHT22;39100;53.480;6.158;2022-07-05T00:08:23;15.90;99.90
52869;DHT22;39100;53.480;6.158;2022-07-05T00:10:49;15.90;99.90
52869;DHT22;39100;53.480;6.158;2022-07-05T00:13:15;15.80;99.90
52869;DHT22;39100;53.480;6.158;2022-07-05T00:15:41;15.80;99.90
52869;DHT22;39100;53.480;6.158;2022-07-05T00:18:07;15.80;99.90
52869;DHT22;39100;53.480;6.158;2022-07-05T00:20:33;15.80;99.90
52869;DHT22;39100;53.480;6.158;2022-07-05T00:22:59;15.80;99.90
52869;DHT22;39100;53.480;6.158;2022-07-05T00:25:24;15.70;99.90
52869;DHT22;39100;53.480;6.158;2022-07-05T00:27:50;15.60;99.90
52869;DHT22;39100;53.480;6.158;2022-07-05T00:30:16;15.60;99.90
52869;DHT22;39100;53.480;6.158;2022-07-05T00:32:41;15.60;99.90
52869;DHT22;39100;53.480;6.158;2022-07-05T00:35:08;15.50;99.90
52869;DHT22;39100;53.480;6.158;2022-07-05T00:37:34;15.70;99.90
52869;DHT22;39100;53.480;6.158;2022-07-05T00:40:00;15.50;99.90
52869;DHT22;39100;53.480;6.158;2022-07-05T00:42:26;15.60;99.90
52869;DHT22;39100;53.480;6.158;2022-07-05T00:44:52;15.60;99.90
52869;DHT22;39100;53.480;6.158;2022-07-05T00:47:17;15.60;99.90
52869;DHT22;39100;53.480;6.158;2022-07-05T00:49:43;15.50;99.90
52869;DHT22;39100;53.480;6.158;2022-07-05T00:52:11;15.50;99.90
52869;DHT22;39100;53.480;6.158;2022-07-05T00:54:38;15.50;99.90
52869;DHT22;39100;53.480;6.158;2022-07-05T00:57:05;15.50;99.90
52869;DHT22;39100;53.480;6.158;2022-07-05T00:59:31;15.50;99.90
52869;DHT22;39100;53.480;6.158;2022-07-05T01:01:57;15.50;99.90
52869;DHT22;39100;53.480;6.158;2022-07-05T01:04:23;15.50;99.90
52869;DHT22;39100;53.480;6.158;2022-07-05T01:06:51;15.50;99.90
52869;DHT22;39100;53.480;6.158;2022-07-05T01:09:18;15.60;99.90
52869;DHT22;39100;53.480;6.158;2022-07-05T01:11:44;15.50;99.90
52869;DHT22;39100;53.480;6.158;2022-07-05T01:14:12;15.50;99.90
52869;DHT22;39100;53.480;6.158;2022-07-05T01:16:39;15.50;99.90
52869;DHT22;39100;53.480;6.158;2022-07-05T01:19:05;15.50;99.90
52869;DHT22;39100;53.480;6.158;2022-07-05T01:21:33;15.40;99.90
52869;DHT22;39100;53.480;6.158;2022-07-05T01:24:02;15.40;99.90
52869;DHT22;39100;53.480;6.158;2022-07-05T01:26:29;15.50;99.90
52869;DHT22;39100;53.480;6.158;2022-07-05T01:28:55;15.40;99.90
52869;DHT22;39100;53.480;6.158;2022-07-05T01:31:20;15.40;99.90
52869;DHT22;39100;53.480;6.158;2022-07-05T01:33:46;15.50;99.90
52869;DHT22;39100;53.480;6.158;2022-07-05T01:36:13;15.50;99.90
52869;DHT22;39100;53.480;6.158;2022-07-05T01:38:39;15.40;99.90
52869;DHT22;39100;53.480;6.158;2022-07-05T01:41:04;15.40;99.90
52869;DHT22;39100;53.480;6.158;2022-07-05T01:43:30;15.40;99.90
52869;DHT22;39100;53.480;6.158;2022-07-05T01:45:58;15.50;99.90
52869;DHT22;39100;53.480;6.158;2022-07-05T01:48:28;15.50;99.90
52869;DHT22;39100;53.480;6.158;2022-07-05T01:53:32;15.40;99.90
52869;DHT22;39100;53.480;6.158;2022-07-05T01:56:00;15.40;99.90
52869;DHT22;39100;53.480;6.158;2022-07-05T01:58:26;15.40;99.90
52869;DHT22;39100;53.480;6.158;2022-07-05T02:00:54;15.40;99.90
52869;DHT22;39100;53.480;6.158;2022-07-05T02:03:21;15.30;99.90
52869;DHT22;39100;53.480;6.158;2022-07-05T02:05:48;15.30;99.90
52869;DHT22;39100;53.480;6.158;2022-07-05T02:08:14;15.30;99.90
52869;DHT22;39100;53.480;6.158;2022-07-05T02:10:41;15.30;99.90
52869;DHT22;39100;53.480;6.158;2022-07-05T02:13:07;15.30;99.90
52869;DHT22;39100;53.480;6.158;2022-07-05T02:15:38;15.30;99.90
52869;DHT22;39100;53.480;6.158;2022-07-05T02:18:05;15.30;99.90
52869;DHT22;39100;53.480;6.158;2022-07-05T02:20:32;15.30;99.90
52869;DHT22;39100;53.480;6.158;2022-07-05T02:22:59;15.30;99.90
52869;DHT22;39100;53.480;6.158;2022-07-05T02:25:24;15.30;99.90
52869;DHT22;39100;53.480;6.158;2022-07-05T02:27:54;15.30;99.90
52869;DHT22;39100;53.480;6.158;2022-07-05T02:30:20;15.30;99.90
52869;DHT22;39100;53.480;6.158;2022-07-05T02:32:45;15.20;99.90
52869;DHT22;39100;53.480;6.158;2022-07-05T02:35:11;15.30;99.90
52869;DHT22;39100;53.480;6.158;2022-07-05T02:37:37;15.30;99.90
52869;DHT22;39100;53.480;6.158;2022-07-05T02:40:06;15.30;99.90
52869;DHT22;39100;53.480;6.158;2022-07-05T02:42:32;15.20;99.90
52869;DHT22;39100;53.480;6.158;2022-07-05T02:44:58;15.20;99.90
52869;DHT22;39100;53.480;6.158;2022-07-05T02:47:23;15.20;99.90
52869;DHT22;39100;53.480;6.158;2022-07-05T02:49:49;15.30;99.90
52869;DHT22;39100;53.480;6.158;2022-07-05T02:52:15;15.20;99.90
52869;DHT22;39100;53.480;6.158;2022-07-05T02:54:40;15.10;99.90
52869;DHT22;39100;53.480;6.158;2022-07-05T02:57:06;15.40;99.90
52869;DHT22;39100;53.480;6.158;2022-07-05T02:59:32;15.20;99.90
52869;DHT22;39100;53.480;6.158;2022-07-05T03:01:57;15.20;99.90
52869;DHT22;39100;53.480;6.158;2022-07-05T03:04:23;15.20;99.90
52869;DHT22;39100;53.480;6.158;2022-07-05T03:06:48;15.20;99.90
52869;DHT22;39100;53.480;6.158;2022-07-05T03:09:14;15.30;99.90
52869;DHT22;39100;53.480;6.158;2022-07-05T03:11:39;15.20;99.90
52869;DHT22;39100;53.480;6.158;2022-07-05T03:14:05;15.20;99.90
52869;DHT22;39100;53.480;6.158;2022-07-05T03:16:31;15.20;99.90
52869;DHT22;39100;53.480;6.158;2022-07-05T03:18:56;15.20;99.90
52869;DHT22;39100;53.480;6.158;2022-07-05T03:21:22;15.20;99.90
52869;DHT22;39100;53.480;6.158;2022-07-05T03:23:48;15.30;99.90
52869;DHT22;39100;53.480;6.158;2022-07-05T03:26:13;15.30;99.90
52869;DHT22;39100;53.480;6.158;2022-07-05T03:28:39;15.30;99.90
52869;DHT22;39100;53.480;6.158;2022-07-05T03:31:05;15.30;99.90
52869;DHT22;39100;53.480;6.158;2022-07-05T03:33:31;15.30;99.90
52869;DHT22;39100;53.480;6.158;2022-07-05T03:35:57;15.30;99.90
52869;DHT22;39100;53.480;6.158;2022-07-05T03:38:23;15.40;99.90
52869;DHT22;39100;53.480;6.158;2022-07-05T03:40:48;15.40;99.90
52869;DHT22;39100;53.480;6.158;2022-07-05T03:43:14;15.40;99.90
52869;DHT22;39100;53.480;6.158;2022-07-05T03:45:39;15.40;99.90
52869;DHT22;39100;53.480;6.158;2022-07-05T03:48:05;15.40;99.90
52869;DHT22;39100;53.480;6.158;2022-07-05T03:50:31;15.50;99.90
52869;DHT22;39100;53.480;6.158;2022-07-05T03:52:56;15.50;99.90
52869;DHT22;39100;53.480;6.158;2022-07-05T03:55:22;15.50;99.90
52869;DHT22;39100;53.480;6.158;2022-07-05T03:57:47;15.50;99.90
52869;DHT22;39100;53.480;6.158;2022-07-05T04:00:14;15.50;99.90
52869;DHT22;39100;53.480;6.158;2022-07-05T04:02:40;15.40;99.90
52869;DHT22;39100;53.480;6.158;2022-07-05T04:05:06;15.50;99.90
52869;DHT22;39100;53.480;6.158;2022-07-05T04:07:32;15.40;99.90
52869;DHT22;39100;53.480;6.158;2022-07-05T04:09:58;15.40;99.90
52869;DHT22;39100;53.480;6.158;2022-07-05T04:12:23;15.40;99.90
52869;DHT22;39100;53.480;6.158;2022-07-05T04:14:49;15.40;99.90
52869;DHT22;39100;53.480;6.158;2022-07-05T04:17:15;15.40;99.90
52869;DHT22;39100;53.480;6.158;2022-07-05T04:19:40;15.40;99.90
52869;DHT22;39100;53.480;6.158;2022-07-05T04:22:06;15.40;99.90
52869;DHT22;39100;53.480;6.158;2022-07-05T04:24:31;15.40;99.90
52869;DHT22;39100;53.480;6.158;2022-07-05T04:26:57;15.40;99.90
52869;DHT22;39100;53.480;6.158;2022-07-05T04:29:22;15.60;99.90
52869;DHT22;39100;53.480;6.158;2022-07-05T04:31:48;15.50;99.90
52869;DHT22;39100;53.480;6.158;2022-07-05T04:34:14;15.50;99.90
52869;DHT22;39100;53.480;6.158;2022-07-05T04:36:39;15.60;99.90
52869;DHT22;39100;53.480;6.158;2022-07-05T04:39:07;15.50;99.90
52869;DHT22;39100;53.480;6.158;2022-07-05T04:41:33;15.60;99.90
52869;DHT22;39100;53.480;6.158;2022-07-05T04:43:59;15.60;99.90
52869;DHT22;39100;53.480;6.158;2022-07-05T04:46:25;15.50;99.90
52869;DHT22;39100;53.480;6.158;2022-07-05T04:48:50;15.40;99.90
52869;DHT22;39100;53.480;6.158;2022-07-05T04:51:16;15.40;99.90
52869;DHT22;39100;53.480;6.158;2022-07-05T04:53:42;15.40;99.90
52869;DHT22;39100;53.480;6.158;2022-07-05T04:56:08;15.50;99.90
52869;DHT22;39100;53.480;6.158;2022-07-05T04:58:33;16.00;99.90
52869;DHT22;39100;53.480;6.158;2022-07-05T05:00:59;15.70;99.90
52869;DHT22;39100;53.480;6.158;2022-07-05T05:03:25;15.80;99.90
52869;DHT22;39100;53.480;6.158;2022-07-05T05:05:51;16.00;99.90
52869;DHT22;39100;53.480;6.158;2022-07-05T05:08:16;16.10;99.90
52869;DHT22;39100;53.480;6.158;2022-07-05T05:10:42;16.20;99.90
52869;DHT22;39100;53.480;6.158;2022-07-05T05:13:07;16.20;99.90
52869;DHT22;39100;53.480;6.158;2022-07-05T05:15:33;16.40;99.90
52869;DHT22;39100;53.480;6.158;2022-07-05T05:17:58;16.30;99.90
52869;DHT22;39100;53.480;6.158;2022-07-05T05:20:24;16.30;99.90
52869;DHT22;39100;53.480;6.158;2022-07-05T05:22:50;16.40;99.90
52869;DHT22;39100;53.480;6.158;2022-07-05T05:25:16;16.40;99.90
52869;DHT22;39100;53.480;6.158;2022-07-05T05:27:46;16.40;99.90
52869;DHT22;39100;53.480;6.158;2022-07-05T05:30:13;16.30;99.90
52869;DHT22;39100;53.480;6.158;2022-07-05T05:32:39;16.30;99.90
52869;DHT22;39100;53.480;6.158;2022-07-05T05:35:05;16.30;99.90
52869;DHT22;39100;53.480;6.158;2022-07-05T05:37:31;16.30;99.90
52869;DHT22;39100;53.480;6.158;2022-07-05T05:39:57;16.30;99.90
52869;DHT22;39100;53.480;6.158;2022-07-05T05:42:22;17.10;99.90
52869;DHT22;39100;53.480;6.158;2022-07-05T05:44:48;16.50;99.90
52869;DHT22;39100;53.480;6.158;2022-07-05T05:47:13;16.70;99.90
52869;DHT22;39100;53.480;6.158;2022-07-05T05:49:39;16.70;99.90
52869;DHT22;39100;53.480;6.158;2022-07-05T05:52:05;16.90;99.90
52869;DHT22;39100;53.480;6.158;2022-07-05T05:54:30;17.10;99.90
52869;DHT22;39100;53.480;6.158;2022-07-05T05:56:56;17.20;99.90
52869;DHT22;39100;53.480;6.158;2022-07-05T05:59:21;17.50;99.90
52869;DHT22;39100;53.480;6.158;2022-07-05T06:01:47;17.70;99.90
52869;DHT22;39100;53.480;6.158;2022-07-05T06:04:12;17.90;99.90
52869;DHT22;39100;53.480;6.158;2022-07-05T06:06:38;18.50;99.90
52869;DHT22;39100;53.480;6.158;2022-07-05T06:09:04;18.40;99.90
52869;DHT22;39100;53.480;6.158;2022-07-05T06:11:29;18.60;99.90
52869;DHT22;39100;53.480;6.158;2022-07-05T06:13:55;18.20;99.90
52869;DHT22;39100;53.480;6.158;2022-07-05T06:16:21;18.10;99.90
52869;DHT22;39100;53.480;6.158;2022-07-05T06:18:46;18.00;99.90
52869;DHT22;39100;53.480;6.158;2022-07-05T06:21:12;17.90;99.90
52869;DHT22;39100;53.480;6.158;2022-07-05T06:23:37;17.70;99.90
52869;DHT22;39100;53.480;6.158;2022-07-05T06:26:03;17.50;99.90
52869;DHT22;39100;53.480;6.158;2022-07-05T06:28:28;17.40;99.90
52869;DHT22;39100;53.480;6.158;2022-07-05T06:30:54;17.30;99.90
52869;DHT22;39100;53.480;6.158;2022-07-05T06:33:20;17.20;99.90
52869;DHT22;39100;53.480;6.158;2022-07-05T06:35:46;17.20;99.90
52869;DHT22;39100;53.480;6.158;2022-07-05T06:38:11;17.40;99.90
52869;DHT22;39100;53.480;6.158;2022-07-05T06:40:39;17.80;99.90
52869;DHT22;39100;53.480;6.158;2022-07-05T06:43:08;17.90;99.90
52869;DHT22;39100;53.480;6.158;2022-07-05T06:45:34;17.90;99.90
52869;DHT22;39100;53.480;6.158;2022-07-05T06:48:04;18.00;99.90
52869;DHT22;39100;53.480;6.158;2022-07-05T06:50:32;18.40;99.90
52869;DHT22;39100;53.480;6.158;2022-07-05T06:52:58;18.70;99.90
52869;DHT22;39100;53.480;6.158;2022-07-05T06:55:24;18.70;99.90
52869;DHT22;39100;53.480;6.158;2022-07-05T06:58:04;18.90;99.90
52869;DHT22;39100;53.480;6.158;2022-07-05T07:00:31;18.70;99.90
52869;DHT22;39100;53.480;6.158;2022-07-05T07:02:57;18.60;99.90
52869;DHT22;39100;53.480;6.158;2022-07-05T07:05:23;18.50;99.90
52869;DHT22;39100;53.480;6.158;2022-07-05T07:07:49;18.50;99.90
52869;DHT22;39100;53.480;6.158;2022-07-05T07:10:33;18.70;99.90
52869;DHT22;39100;53.480;6.158;2022-07-05T07:12:59;18.70;99.90
52869;DHT22;39100;53.480;6.158;2022-07-05T07:15:25;18.90;99.90
52869;DHT22;39100;53.480;6.158;2022-07-05T07:17:51;18.60;99.90
52869;DHT22;39100;53.480;6.158;2022-07-05T07:20:16;18.50;99.90
52869;DHT22;39100;53.480;6.158;2022-07-05T07:22:42;18.40;99.90
52869;DHT22;39100;53.480;6.158;2022-07-05T07:25:08;18.30;99.90
52869;DHT22;39100;53.480;6.158;2022-07-05T07:27:44;18.20;99.90
52869;DHT22;39100;53.480;6.158;2022-07-05T07:30:15;18.10;99.90
52869;DHT22;39100;53.480;6.158;2022-07-05T07:32:41;18.20;99.90
52869;DHT22;39100;53.480;6.158;2022-07-05T07:35:07;18.30;99.90
52869;DHT22;39100;53.480;6.158;2022-07-05T07:37:33;18.50;99.90
52869;DHT22;39100;53.480;6.158;2022-07-05T07:39:59;18.50;99.90
52869;DHT22;39100;53.480;6.158;2022-07-05T07:42:27;18.60;99.90
52869;DHT22;39100;53.480;6.158;2022-07-05T07:44:53;18.90;99.90
52869;DHT22;39100;53.480;6.158;2022-07-05T07:47:18;19.10;99.90
52869;DHT22;39100;53.480;6.158;2022-07-05T07:49:44;19.20;99.90
52869;DHT22;39100;53.480;6.158;2022-07-05T07:52:10;19.30;99.90
52869;DHT22;39100;53.480;6.158;2022-07-05T07:54:35;19.10;99.90
52869;DHT22;39100;53.480;6.158;2022-07-05T07:57:01;19.60;99.90
52869;DHT22;39100;53.480;6.158;2022-07-05T07:59:29;20.00;99.90
52869;DHT22;39100;53.480;6.158;2022-07-05T08:01:55;20.40;99.90
52869;DHT22;39100;53.480;6.158;2022-07-05T08:04:20;20.00;99.90
52869;DHT22;39100;53.480;6.158;2022-07-05T08:06:46;20.40;99.90
52869;DHT22;39100;53.480;6.158;2022-07-05T08:09:12;20.00;99.90
52869;DHT22;39100;53.480;6.158;2022-07-05T08:11:38;19.60;99.90
52869;DHT22;39100;53.480;6.158;2022-07-05T08:14:03;19.40;99.90
52869;DHT22;39100;53.480;6.158;2022-07-05T08:16:29;18.90;99.90
52869;DHT22;39100;53.480;6.158;2022-07-05T08:18:55;19.00;99.90
52869;DHT22;39100;53.480;6.158;2022-07-05T08:21:39;18.90;99.90
52869;DHT22;39100;53.480;6.158;2022-07-05T08:24:07;18.80;99.90
52869;DHT22;39100;53.480;6.158;2022-07-05T08:26:34;18.50;99.90
52869;DHT22;39100;53.480;6.158;2022-07-05T08:29:01;18.50;99.90
52869;DHT22;39100;53.480;6.158;2022-07-05T08:31:28;18.40;99.90
52869;DHT22;39100;53.480;6.158;2022-07-05T08:34:00;18.40;99.90
52869;DHT22;39100;53.480;6.158;2022-07-05T08:36:26;18.40;99.90
52869;DHT22;39100;53.480;6.158;2022-07-05T08:38:52;18.50;99.90
52869;DHT22;39100;53.480;6.158;2022-07-05T08:41:20;18.40;99.90
52869;DHT22;39100;53.480;6.158;2022-07-05T08:43:46;18.50;99.90
52869;DHT22;39100;53.480;6.158;2022-07-05T08:46:14;18.60;99.90
52869;DHT22;39100;53.480;6.158;2022-07-05T08:48:41;18.60;99.90
52869;DHT22;39100;53.480;6.158;2022-07-05T08:51:14;18.80;99.90
52869;DHT22;39100;53.480;6.158;2022-07-05T08:53:42;18.50;99.90
52869;DHT22;39100;53.480;6.158;2022-07-05T08:56:09;18.90;99.90
52869;DHT22;39100;53.480;6.158;2022-07-05T08:58:36;18.60;99.90
52869;DHT22;39100;53.480;6.158;2022-07-05T09:01:02;18.50;99.90
52869;DHT22;39100;53.480;6.158;2022-07-05T09:03:47;18.60;99.90
52869;DHT22;39100;53.480;6.158;2022-07-05T09:06:15;18.60;99.90
52869;DHT22;39100;53.480;6.158;2022-07-05T09:08:41;18.70;99.90
52869;DHT22;39100;53.480;6.158;2022-07-05T09:11:09;18.70;99.90
52869;DHT22;39100;53.480;6.158;2022-07-05T09:13:40;18.70;99.90
52869;DHT22;39100;53.480;6.158;2022-07-05T09:16:06;18.70;99.90
52869;DHT22;39100;53.480;6.158;2022-07-05T09:19:05;18.60;99.90
52869;DHT22;39100;53.480;6.158;2022-07-05T09:21:31;18.50;99.90
52869;DHT22;39100;53.480;6.158;2022-07-05T09:23:58;18.20;99.90
52869;DHT22;39100;53.480;6.158;2022-07-05T09:26:33;18.10;99.90
52869;DHT22;39100;53.480;6.158;2022-07-05T09:28:59;17.90;99.90
52869;DHT22;39100;53.480;6.158;2022-07-05T09:31:30;17.70;99.90
52869;DHT22;39100;53.480;6.158;2022-07-05T09:34:16;17.50;99.90
52869;DHT22;39100;53.480;6.158;2022-07-05T09:42:08;16.90;99.90
52869;DHT22;39100;53.480;6.158;2022-07-05T09:44:41;16.90;99.90
52869;DHT22;39100;53.480;6.158;2022-07-05T09:47:08;16.80;99.90
52869;DHT22;39100;53.480;6.158;2022-07-05T09:49:41;16.80;99.90
52869;DHT22;39100;53.480;6.158;2022-07-05T09:52:07;16.90;99.90
52869;DHT22;39100;53.480;6.158;2022-07-05T09:54:33;17.10;99.90
52869;DHT22;39100;53.480;6.158;2022-07-05T09:56:58;17.20;99.90
52869;DHT22;39100;53.480;6.158;2022-07-05T09:59:24;17.40;99.90
52869;DHT22;39100;53.480;6.158;2022-07-05T10:01:50;17.70;99.90
52869;DHT22;39100;53.480;6.158;2022-07-05T10:04:16;17.90;99.90
52869;DHT22;39100;53.480;6.158;2022-07-05T10:06:42;18.00;99.90
52869;DHT22;39100;53.480;6.158;2022-07-05T10:09:09;18.00;99.90
52869;DHT22;39100;53.480;6.158;2022-07-05T10:11:39;18.00;99.90
52869;DHT22;39100;53.480;6.158;2022-07-05T10:14:10;18.00;99.90
52869;DHT22;39100;53.480;6.158;2022-07-05T10:16:36;17.90;99.90
52869;DHT22;39100;53.480;6.158;2022-07-05T10:19:02;17.90;99.90
52869;DHT22;39100;53.480;6.158;2022-07-05T10:21:28;17.90;99.90
52869;DHT22;39100;53.480;6.158;2022-07-05T10:23:54;17.90;99.90
52869;DHT22;39100;53.480;6.158;2022-07-05T10:26:22;17.80;99.90
52869;DHT22;39100;53.480;6.158;2022-07-05T10:28:49;17.80;99.90
52869;DHT22;39100;53.480;6.158;2022-07-05T10:31:16;17.60;99.90
52869;DHT22;39100;53.480;6.158;2022-07-05T10:33:42;17.40;99.90
52869;DHT22;39100;53.480;6.158;2022-07-05T10:36:13;17.30;99.90
52869;DHT22;39100;53.480;6.158;2022-07-05T10:38:41;17.30;99.90
52869;DHT22;39100;53.480;6.158;2022-07-05T10:41:14;17.10;99.90
52869;DHT22;39100;53.480;6.158;2022-07-05T10:43:42;17.00;99.90
52869;DHT22;39100;53.480;6.158;2022-07-05T10:46:08;17.00;99.90
52869;DHT22;39100;53.480;6.158;2022-07-05T10:48:34;17.00;99.90
52869;DHT22;39100;53.480;6.158;2022-07-05T10:58:35;17.10;99.90
52869;DHT22;39100;53.480;6.158;2022-07-05T11:03:42;17.20;99.90
52869;DHT22;39100;53.480;6.158;2022-07-05T11:06:22;17.20;99.90
52869;DHT22;39100;53.480;6.158;2022-07-05T11:13:58;17.40;99.90
52869;DHT22;39100;53.480;6.158;2022-07-05T11:16:34;17.50;99.90
52869;DHT22;39100;53.480;6.158;2022-07-05T11:19:10;17.50;99.90
52869;DHT22;39100;53.480;6.158;2022-07-05T11:21:58;17.60;99.90
52869;DHT22;39100;53.480;6.158;2022-07-05T11:24:26;17.70;99.90
52869;DHT22;39100;53.480;6.158;2022-07-05T11:26:53;17.80;99.90
52869;DHT22;39100;53.480;6.158;2022-07-05T11:29:41;17.90;99.90
52869;DHT22;39100;53.480;6.158;2022-07-05T11:32:11;18.10;99.90
52869;DHT22;39100;53.480;6.158;2022-07-05T11:34:39;18.20;99.90
52869;DHT22;39100;53.480;6.158;2022-07-05T11:37:22;18.30;99.90
52869;DHT22;39100;53.480;6.158;2022-07-05T11:42:45;18.40;99.90
52869;DHT22;39100;53.480;6.158;2022-07-05T11:45:11;18.30;99.90
52869;DHT22;39100;53.480;6.158;2022-07-05T11:47:37;18.20;99.90
52869;DHT22;39100;53.480;6.158;2022-07-05T11:50:03;18.10;99.90
52869;DHT22;39100;53.480;6.158;2022-07-05T11:52:31;18.20;99.90
52869;DHT22;39100;53.480;6.158;2022-07-05T11:54:58;18.20;99.90
52869;DHT22;39100;53.480;6.158;2022-07-05T11:57:24;18.30;99.90
52869;DHT22;39100;53.480;6.158;2022-07-05T11:59:50;18.60;99.90
52869;DHT22;39100;53.480;6.158;2022-07-05T12:02:17;18.90;99.90
52869;DHT22;39100;53.480;6.158;2022-07-05T12:04:49;19.00;99.90
52869;DHT22;39100;53.480;6.158;2022-07-05T12:07:32;18.90;99.90
52869;DHT22;39100;53.480;6.158;2022-07-05T12:10:03;18.90;99.90
52869;DHT22;39100;53.480;6.158;2022-07-05T12:12:47;18.70;99.90
52869;DHT22;39100;53.480;6.158;2022-07-05T12:15:21;18.70;99.90
52869;DHT22;39100;53.480;6.158;2022-07-05T12:17:49;19.20;99.90
52869;DHT22;39100;53.480;6.158;2022-07-05T12:20:21;19.40;99.90
52869;DHT22;39100;53.480;6.158;2022-07-05T12:22:47;18.40;99.90
52869;DHT22;39100;53.480;6.158;2022-07-05T12:25:21;18.30;99.90
52869;DHT22;39100;53.480;6.158;2022-07-05T12:27:49;18.20;99.90
52869;DHT22;39100;53.480;6.158;2022-07-05T12:30:15;18.10;99.90
52869;DHT22;39100;53.480;6.158;2022-07-05T14:57:22;20.70;99.90
52869;DHT22;39100;53.480;6.158;2022-07-05T14:59:48;20.70;99.90
52869;DHT22;39100;53.480;6.158;2022-07-05T15:02:14;20.80;99.90
52869;DHT22;39100;53.480;6.158;2022-07-05T15:04:43;20.80;99.90
52869;DHT22;39100;53.480;6.158;2022-07-05T15:07:08;21.00;99.90
52869;DHT22;39100;53.480;6.158;2022-07-05T15:09:34;20.80;99.90
52869;DHT22;39100;53.480;6.158;2022-07-05T15:11:59;20.90;99.90
52869;DHT22;39100;53.480;6.158;2022-07-05T15:14:25;21.20;99.90
52869;DHT22;39100;53.480;6.158;2022-07-05T15:16:54;20.90;99.90
52869;DHT22;39100;53.480;6.158;2022-07-05T15:19:20;20.90;99.90
52869;DHT22;39100;53.480;6.158;2022-07-05T15:21:46;20.80;99.90
52869;DHT22;39100;53.480;6.158;2022-07-05T15:24:12;20.60;99.90
52869;DHT22;39100;53.480;6.158;2022-07-05T15:26:37;20.60;99.90
52869;DHT22;39100;53.480;6.158;2022-07-05T15:29:08;20.50;99.90
52869;DHT22;39100;53.480;6.158;2022-07-05T15:31:35;20.40;99.90
52869;DHT22;39100;53.480;6.158;2022-07-05T15:34:02;20.30;99.90
52869;DHT22;39100;53.480;6.158;2022-07-05T15:36:29;20.50;99.90
52869;DHT22;39100;53.480;6.158;2022-07-05T15:38:59;20.50;99.90
52869;DHT22;39100;53.480;6.158;2022-07-05T15:41:28;20.60;99.90
52869;DHT22;39100;53.480;6.158;2022-07-05T15:43:54;20.50;99.90
52869;DHT22;39100;53.480;6.158;2022-07-05T15:46:20;20.60;99.90
52869;DHT22;39100;53.480;6.158;2022-07-05T15:48:46;20.70;99.90
52869;DHT22;39100;53.480;6.158;2022-07-05T15:51:17;20.90;99.90
52869;DHT22;39100;53.480;6.158;2022-07-05T15:53:43;20.40;99.90
52869;DHT22;39100;53.480;6.158;2022-07-05T15:56:09;20.20;99.90
52869;DHT22;39100;53.480;6.158;2022-07-05T15:58:35;20.20;99.90
52869;DHT22;39100;53.480;6.158;2022-07-05T16:01:03;19.90;99.90
52869;DHT22;39100;53.480;6.158;2022-07-05T16:03:29;19.50;99.90
52869;DHT22;39100;53.480;6.158;2022-07-05T16:05:58;19.20;99.90
52869;DHT22;39100;53.480;6.158;2022-07-05T16:08:24;19.10;99.90
52869;DHT22;39100;53.480;6.158;2022-07-05T16:10:50;19.10;99.90
52869;DHT22;39100;53.480;6.158;2022-07-05T16:13:16;19.10;99.90
52869;DHT22;39100;53.480;6.158;2022-07-05T16:15:42;19.10;99.90
52869;DHT22;39100;53.480;6.158;2022-07-05T16:18:27;19.20;99.90
52869;DHT22;39100;53.480;6.158;2022-07-05T16:20:53;19.10;99.90
52869;DHT22;39100;53.480;6.158;2022-07-05T16:23:18;19.30;99.90
52869;DHT22;39100;53.480;6.158;2022-07-05T16:25:45;19.20;99.90
52869;DHT22;39100;53.480;6.158;2022-07-05T16:28:11;19.10;99.90
52869;DHT22;39100;53.480;6.158;2022-07-05T16:30:37;19.10;99.90
52869;DHT22;39100;53.480;6.158;2022-07-05T16:33:02;19.10;99.90
52869;DHT22;39100;53.480;6.158;2022-07-05T16:35:28;19.10;99.90
52869;DHT22;39100;53.480;6.158;2022-07-05T16:37:53;18.90;99.90
52869;DHT22;39100;53.480;6.158;2022-07-05T16:40:19;18.80;99.90
52869;DHT22;39100;53.480;6.158;2022-07-05T16:42:45;18.70;99.90
52869;DHT22;39100;53.480;6.158;2022-07-05T16:45:10;18.70;99.90
52869;DHT22;39100;53.480;6.158;2022-07-05T16:47:37;18.50;99.90
52869;DHT22;39100;53.480;6.158;2022-07-05T16:50:03;18.50;99.90
52869;DHT22;39100;53.480;6.158;2022-07-05T16:52:29;18.50;99.90
52869;DHT22;39100;53.480;6.158;2022-07-05T16:54:55;18.50;99.90
52869;DHT22;39100;53.480;6.158;2022-07-05T16:57:21;18.40;99.90
52869;DHT22;39100;53.480;6.158;2022-07-05T16:59:46;18.40;99.90
52869;DHT22;39100;53.480;6.158;2022-07-05T17:02:12;18.30;99.90
52869;DHT22;39100;53.480;6.158;2022-07-05T17:04:38;18.30;99.90
52869;DHT22;39100;53.480;6.158;2022-07-05T17:07:04;18.10;99.90
52869;DHT22;39100;53.480;6.158;2022-07-05T17:09:30;18.10;99.90
52869;DHT22;39100;53.480;6.158;2022-07-05T17:11:55;18.10;99.90
52869;DHT22;39100;53.480;6.158;2022-07-05T17:14:21;18.20;99.90
52869;DHT22;39100;53.480;6.158;2022-07-05T17:16:52;18.10;99.90
52869;DHT22;39100;53.480;6.158;2022-07-05T17:19:17;18.00;99.90
52869;DHT22;39100;53.480;6.158;2022-07-05T17:21:43;18.10;99.90
52869;DHT22;39100;53.480;6.158;2022-07-05T17:24:09;18.00;99.90
52869;DHT22;39100;53.480;6.158;2022-07-05T17:26:34;17.90;99.90
52869;DHT22;39100;53.480;6.158;2022-07-05T17:29:00;17.90;99.90
52869;DHT22;39100;53.480;6.158;2022-07-05T17:31:25;17.90;99.90
52869;DHT22;39100;53.480;6.158;2022-07-05T17:33:51;17.80;99.90
52869;DHT22;39100;53.480;6.158;2022-07-05T17:36:18;17.70;99.90
52869;DHT22;39100;53.480;6.158;2022-07-05T17:38:45;17.70;99.90
52869;DHT22;39100;53.480;6.158;2022-07-05T17:41:11;17.60;99.90
52869;DHT22;39100;53.480;6.158;2022-07-05T17:43:41;17.50;99.90
52869;DHT22;39100;53.480;6.158;2022-07-05T17:46:22;17.50;99.90
52869;DHT22;39100;53.480;6.158;2022-07-05T17:48:49;17.40;99.90
52869;DHT22;39100;53.480;6.158;2022-07-05T17:51:16;17.30;99.90
52869;DHT22;39100;53.480;6.158;2022-07-05T17:53:42;17.30;99.90
52869;DHT22;39100;53.480;6.158;2022-07-05T17:56:09;17.10;99.90
52869;DHT22;39100;53.480;6.158;2022-07-05T17:58:35;17.10;99.90
52869;DHT22;39100;53.480;6.158;2022-07-05T18:01:02;17.00;99.90
52869;DHT22;39100;53.480;6.158;2022-07-05T18:03:27;16.90;99.90
52869;DHT22;39100;53.480;6.158;2022-07-05T18:05:53;16.90;99.90
52869;DHT22;39100;53.480;6.158;2022-07-05T18:08:19;16.90;99.90
52869;DHT22;39100;53.480;6.158;2022-07-05T18:10:45;16.90;99.90
52869;DHT22;39100;53.480;6.158;2022-07-05T18:13:11;16.90;99.90
52869;DHT22;39100;53.480;6.158;2022-07-05T18:15:37;16.90;99.90
52869;DHT22;39100;53.480;6.158;2022-07-05T18:18:04;16.90;99.90
52869;DHT22;39100;53.480;6.158;2022-07-05T18:20:30;17.00;99.90